Time;durP1;ratioP1;P1;durP2;ratioP2;P2;SDS_P1;SDS_P2;PMS_P1;PMS_P2;Temp;Humidity;BMP_temperature;BMP_pressure;BME280_temperature;BME280_humidity;BME280_pressure;Samples;Min_cycle;Max_cycle;Signal;HPM_P1;HPM_P2
2021/03/27 00:02:11;;;;;;;2.25;1.25;;;17.70;60.30;;;;;;10454678;28;20040;-60
2021/03/27 00:07:29;;;;;;;2.00;1.00;;;17.70;60.20;;;;;;10480126;28;20107;-59
2021/03/27 00:12:36;;;;;;;2.33;1.17;;;17.80;60.20;;;;;;10468815;28;20115;-59
2021/03/27 00:17:49;;;;;;;2.97;0.90;;;17.70;60.20;;;;;;10481809;28;20032;-60
2021/03/27 00:23:00;;;;;;;1.95;1.00;;;17.70;60.20;;;;;;10474160;28;20060;-59
2021/03/27 00:28:43;;;;;;;2.58;0.80;;;17.70;60.10;;;;;;10483496;28;20063;-59
2021/03/27 00:33:51;;;;;;;3.55;0.88;;;17.70;60.10;;;;;;10479316;28;20071;-59
2021/03/27 00:39:24;;;;;;;1.98;1.25;;;17.80;60.10;;;;;;10502776;28;20029;-59
2021/03/27 00:44:40;;;;;;;1.83;0.90;;;17.80;60.00;;;;;;10468954;28;20098;-59
2021/03/27 00:49:51;;;;;;;1.27;0.82;;;17.70;59.90;;;;;;10460888;28;20033;-59
2021/03/27 00:55:13;;;;;;;2.55;1.13;;;17.80;59.90;;;;;;10497031;28;20440;-59
2021/03/27 01:00:36;;;;;;;0.98;0.63;;;17.70;59.90;;;;;;10460407;28;20033;-59
2021/03/27 01:05:37;;;;;;;2.90;0.85;;;17.70;59.80;;;;;;10461677;28;20485;-59
2021/03/27 01:10:55;;;;;;;1.55;0.68;;;17.70;59.80;;;;;;10459693;28;20072;-59
2021/03/27 01:16:01;;;;;;;1.10;0.60;;;17.70;59.80;;;;;;10459616;28;20025;-59
2021/03/27 01:21:10;;;;;;;3.08;1.20;;;17.70;59.80;;;;;;10497892;28;20115;-59
2021/03/27 01:26:22;;;;;;;1.00;0.70;;;17.70;59.80;;;;;;10495252;28;20086;-59
2021/03/27 01:31:48;;;;;;;1.65;0.90;;;17.70;59.80;;;;;;10462908;28;20033;-59
2021/03/27 01:37:06;;;;;;;1.73;0.90;;;17.70;59.90;;;;;;10458774;28;20032;-59
2021/03/27 01:42:19;;;;;;;2.53;1.08;;;17.70;59.70;;;;;;10496869;28;20029;-59
2021/03/27 01:47:44;;;;;;;1.65;0.80;;;17.80;59.70;;;;;;10486291;28;20489;-59
2021/03/27 01:53:02;;;;;;;1.42;0.80;;;17.70;59.60;;;;;;10474995;28;20128;-59
2021/03/27 01:58:23;;;;;;;1.25;0.90;;;17.80;59.70;;;;;;10466882;28;20042;-60
2021/03/27 02:03:31;;;;;;;1.38;0.60;;;17.70;59.70;;;;;;10499567;28;20032;-60
2021/03/27 02:08:39;;;;;;;1.48;1.05;;;17.80;59.70;;;;;;10478029;28;20123;-60
2021/03/27 02:14:02;;;;;;;1.80;0.80;;;17.70;59.60;;;;;;10458730;28;20416;-59
2021/03/27 02:19:39;;;;;;;4.53;1.17;;;17.70;59.60;;;;;;10479752;28;20033;-59
2021/03/27 02:25:06;;;;;;;1.50;1.08;;;17.70;59.50;;;;;;10499600;28;20072;-59
2021/03/27 02:30:32;;;;;;;1.80;1.13;;;17.70;59.50;;;;;;10466310;28;20397;-60
2021/03/27 02:36:04;;;;;;;1.50;0.80;;;17.70;59.50;;;;;;10456823;28;20060;-59
2021/03/27 02:41:30;;;;;;;1.95;1.05;;;17.70;59.40;;;;;;10456917;28;20033;-59
2021/03/27 02:46:42;;;;;;;2.38;1.13;;;17.70;59.30;;;;;;10457234;28;20416;-59
2021/03/27 02:52:02;;;;;;;1.30;0.82;;;17.80;59.30;;;;;;10482006;28;20060;-59
2021/03/27 02:57:32;;;;;;;1.10;0.80;;;17.80;59.20;;;;;;10487798;28;20432;-59
2021/03/27 03:02:47;;;;;;;2.25;0.98;;;17.80;59.20;;;;;;10475922;28;20071;-59
2021/03/27 03:08:17;;;;;;;1.75;0.98;;;17.80;59.20;;;;;;10483651;28;20040;-60
2021/03/27 03:13:55;;;;;;;1.80;1.20;;;17.80;59.10;;;;;;10497628;28;20481;-59
2021/03/27 03:19:20;;;;;;;1.73;0.80;;;17.70;59.10;;;;;;10463253;28;20025;-59
2021/03/27 03:24:47;;;;;;;1.48;0.88;;;17.80;59.20;;;;;;10454945;28;20163;-59
2021/03/27 03:30:03;;;;;;;1.90;0.80;;;17.80;59.20;;;;;;10468037;28;20120;-60
2021/03/27 03:35:43;;;;;;;1.75;1.20;;;17.70;59.10;;;;;;10456029;28;20378;-60
2021/03/27 03:41:28;;;;;;;2.22;1.00;;;17.80;59.20;;;;;;10455256;28;20116;-60
2021/03/27 03:46:39;;;;;;;2.38;0.95;;;17.80;59.20;;;;;;10454000;28;20029;-59
2021/03/27 03:51:45;;;;;;;1.60;0.82;;;17.70;59.20;;;;;;10491770;28;20496;-59
2021/03/27 03:57:29;;;;;;;1.98;1.08;;;17.80;59.20;;;;;;10492093;28;20025;-59
2021/03/27 04:02:43;;;;;;;1.58;0.82;;;17.70;59.10;;;;;;10470892;28;20365;-60
2021/03/27 04:07:54;;;;;;;1.63;0.95;;;17.70;59.10;;;;;;10493782;28;20039;-59
2021/03/27 04:13:02;;;;;;;1.88;0.80;;;17.70;59.70;;;;;;10496423;28;20071;-59
2021/03/27 04:18:22;;;;;;;2.20;0.90;;;17.70;59.10;;;;;;10456701;28;20087;-59
2021/03/27 04:23:59;;;;;;;2.83;0.82;;;17.70;59.00;;;;;;10495204;28;20059;-59
2021/03/27 04:29:28;;;;;;;2.75;1.10;;;17.80;59.00;;;;;;10488292;28;20115;-60
2021/03/27 04:34:42;;;;;;;2.33;1.02;;;17.80;59.00;;;;;;10452969;28;20125;-59
2021/03/27 04:40:22;;;;;;;1.30;0.80;;;17.80;59.00;;;;;;10459508;28;20486;-59
2021/03/27 04:45:54;;;;;;;1.20;0.80;;;17.70;58.80;;;;;;10458982;28;20119;-60
2021/03/27 04:51:20;;;;;;;1.08;0.70;;;17.70;58.90;;;;;;10456045;28;20060;-60
2021/03/27 04:56:54;;;;;;;1.00;0.70;;;17.80;59.00;;;;;;10452407;28;20119;-60
2021/03/27 05:02:15;;;;;;;2.47;0.80;;;17.80;58.90;;;;;;10475447;28;20390;-60
2021/03/27 05:07:23;;;;;;;3.03;1.02;;;17.80;58.90;;;;;;10473116;28;20075;-59
2021/03/27 05:12:42;;;;;;;2.90;0.90;;;17.70;58.80;;;;;;10461243;28;20037;-59
2021/03/27 05:17:45;;;;;;;1.95;1.15;;;17.80;58.90;;;;;;10453050;28;20091;-59
2021/03/27 05:23:40;;;;;;;1.20;0.85;;;17.80;58.80;;;;;;10453677;28;20565;-59
2021/03/27 05:29:04;;;;;;;2.67;1.10;;;17.80;58.80;;;;;;10448143;28;20496;-59
2021/03/27 05:34:32;;;;;;;3.70;0.70;;;17.80;58.70;;;;;;10474880;28;20090;-59
2021/03/27 05:39:52;;;;;;;1.50;0.75;;;17.70;58.60;;;;;;10454048;28;20037;-59
2021/03/27 05:44:56;;;;;;;;;;;17.70;58.60;;;;;;10459084;28;20037;-59
2021/03/27 05:50:55;;;;;;;1.45;0.63;;;17.80;58.70;;;;;;10469463;28;20327;-59
2021/03/27 05:56:06;;;;;;;1.67;0.70;;;17.80;58.60;;;;;;10482213;28;20117;-60
2021/03/27 06:01:42;;;;;;;1.33;0.80;;;17.80;58.60;;;;;;10464564;28;20040;-60
2021/03/27 06:07:27;;;;;;;1.45;0.60;;;17.70;59.20;;;;;;10474768;28;20090;-59
2021/03/27 06:13:05;;;;;;;2.67;1.20;;;17.70;58.60;;;;;;10457023;28;20417;-59
2021/03/27 06:19:01;;;;;;;7.22;1.02;;;17.70;58.70;;;;;;10458824;28;20025;-58
2021/03/27 06:24:49;;;;;;;9.73;1.30;;;17.80;60.50;;;;;;10462803;28;20045;-58
2021/03/27 06:30:02;;;;;;;5.30;0.98;;;17.80;60.30;;;;;;10465256;28;20032;-61
2021/03/27 06:35:42;;;;;;;3.97;1.67;;;17.80;61.20;;;;;;10491050;28;20405;-60
2021/03/27 06:41:28;;;;;;;7.60;1.30;;;17.90;61.10;;;;;;10459465;28;20070;-60
2021/03/27 06:46:50;;;;;;;5.35;1.45;;;17.80;61.00;;;;;;10493805;28;20047;-62
2021/03/27 06:52:11;;;;;;;3.60;0.98;;;17.80;60.70;;;;;;10464537;28;20037;-62
2021/03/27 06:58:03;;;;;;;2.22;1.00;;;17.80;60.60;;;;;;10481896;28;20052;-63
2021/03/27 07:03:41;;;;;;;8.10;1.40;;;17.70;60.60;;;;;;10470698;28;20374;-62
2021/03/27 07:09:37;;;;;;;9.50;1.65;;;17.70;60.80;;;;;;10467522;28;20036;-60
2021/03/27 07:15:25;;;;;;;9.60;1.42;;;17.70;60.80;;;;;;10453074;28;20045;-63
2021/03/27 07:20:52;;;;;;;9.88;1.60;;;17.60;60.60;;;;;;10453175;28;20040;-64
2021/03/27 07:26:18;;;;;;;5.32;1.38;;;17.60;61.00;;;;;;10497361;28;20439;-61
2021/03/27 07:31:31;;;;;;;20.50;2.58;;;17.60;60.60;;;;;;10483342;28;20583;-62
2021/03/27 07:36:55;;;;;;;10.52;2.25;;;17.50;60.20;;;;;;10464227;28;20029;-62
2021/03/27 07:42:24;;;;;;;12.05;2.78;;;17.50;59.80;;;;;;10452974;28;20029;-61
2021/03/27 07:48:11;;;;;;;9.18;2.33;;;17.50;59.70;;;;;;10451811;28;20044;-61
2021/03/27 07:53:50;;;;;;;6.95;1.77;;;17.50;59.60;;;;;;10473042;28;20107;-62
2021/03/27 07:59:21;;;;;;;7.43;1.42;;;17.50;59.60;;;;;;10492730;28;20065;-61
2021/03/27 08:05:05;;;;;;;6.28;2.45;;;17.50;59.50;;;;;;10455582;28;20036;-62
2021/03/27 08:10:42;;;;;;;5.80;1.40;;;17.50;59.50;;;;;;10454672;28;20090;-62
2021/03/27 08:16:10;;;;;;;8.98;1.77;;;17.50;59.40;;;;;;10480760;28;20029;-62
2021/03/27 08:21:41;;;;;;;6.32;1.30;;;17.50;59.20;;;;;;10465585;28;20048;-62
2021/03/27 08:27:17;;;;;;;6.47;1.65;;;17.60;59.70;;;;;;10496642;28;20159;-62
2021/03/27 08:33:16;;;;;;;6.93;1.27;;;17.50;59.00;;;;;;10465445;28;20055;-62
2021/03/27 08:39:05;;;;;;;5.00;1.52;;;17.50;58.90;;;;;;10439648;28;20130;-62
2021/03/27 08:44:34;;;;;;;3.85;1.30;;;17.60;59.00;;;;;;10450419;28;20045;-61
2021/03/27 08:49:53;;;;;;;2.85;1.15;;;17.60;58.80;;;;;;10461577;28;20033;-62
2021/03/27 08:55:09;;;;;;;3.03;1.10;;;17.60;58.70;;;;;;10462003;28;20056;-61
2021/03/27 09:00:27;;;;;;;2.92;1.20;;;17.60;58.70;;;;;;10461561;28;20040;-62
2021/03/27 09:06:12;;;;;;;4.15;1.20;;;17.60;58.70;;;;;;10450508;28;20041;-62
2021/03/27 09:11:34;;;;;;;6.15;1.45;;;17.60;58.70;;;;;;10452260;28;20049;-62
2021/03/27 09:17:13;;;;;;;3.40;1.15;;;17.50;58.70;;;;;;10476410;28;20041;-62
2021/03/27 09:23:01;;;;;;;5.53;1.23;;;17.50;58.90;;;;;;10466962;28;20075;-62
2021/03/27 09:28:34;;;;;;;3.03;1.20;;;17.50;59.30;;;;;;10463802;28;20508;-62
2021/03/27 09:34:00;;;;;;;2.15;0.90;;;17.50;59.40;;;;;;10493464;28;20033;-62
2021/03/27 09:39:29;;;;;;;4.38;1.00;;;17.50;59.50;;;;;;10499008;28;20108;-62
2021/03/27 09:44:29;;;;;;;3.88;1.65;;;17.50;59.50;;;;;;10449148;28;20520;-59
2021/03/27 09:50:14;;;;;;;8.05;1.67;;;17.50;59.50;;;;;;10459418;28;20040;-63
2021/03/27 09:55:50;;;;;;;8.65;1.55;;;17.40;59.40;;;;;;10498713;28;20029;-63
2021/03/27 10:01:24;;;;;;;10.95;1.70;;;17.50;60.00;;;;;;10481459;28;20028;-62
2021/03/27 10:06:29;;;;;;;8.45;2.05;;;17.50;59.60;;;;;;10479251;28;20044;-61
2021/03/27 10:11:32;;;;;;;14.40;2.17;;;17.50;60.10;;;;;;10492572;28;20036;-60
2021/03/27 10:16:41;;;;;;;14.07;1.88;;;17.50;60.10;;;;;;10457069;28;20109;-61
2021/03/27 10:22:07;;;;;;;10.80;2.25;;;17.60;60.20;;;;;;10467349;28;20049;-61
2021/03/27 10:27:43;;;;;;;8.88;2.38;;;17.60;60.10;;;;;;10464906;28;20648;-62
2021/03/27 10:33:35;;;;;;;25.17;3.10;;;17.60;59.80;;;;;;10476091;28;20048;-61
2021/03/27 10:39:01;;;;;;;22.02;2.75;;;17.60;60.00;;;;;;10457120;28;20033;-62
2021/03/27 10:44:32;;;;;;;25.90;3.25;;;17.60;60.20;;;;;;10456064;28;20060;-61
2021/03/27 10:49:43;;;;;;;22.42;2.97;;;17.60;60.10;;;;;;10454944;28;20071;-60
2021/03/27 10:55:11;;;;;;;14.63;2.13;;;17.60;59.70;;;;;;10458697;28;20099;-61
2021/03/27 11:00:53;;;;;;;17.10;2.58;;;17.60;59.60;;;;;;10455055;28;20074;-62
2021/03/27 11:06:43;;;;;;;15.02;2.08;;;17.60;59.80;;;;;;10455650;28;20462;-62
2021/03/27 11:12:25;;;;;;;12.43;1.90;;;17.60;60.90;;;;;;10455252;28;20381;-61
2021/03/27 11:18:08;;;;;;;13.05;2.72;;;17.60;61.30;;;;;;10469510;28;20072;-63
2021/03/27 11:23:42;;;;;;;13.60;2.88;;;17.60;61.90;;;;;;10456237;28;20510;-64
2021/03/27 11:29:27;;;;;;;6.55;1.80;;;17.60;61.50;;;;;;10458323;28;20503;-61
2021/03/27 11:35:03;;;;;;;14.73;2.22;;;17.60;61.50;;;;;;10470170;28;20037;-61
2021/03/27 11:40:28;;;;;;;21.95;2.95;;;17.60;61.80;;;;;;10450868;28;20067;-61
2021/03/27 11:45:49;;;;;;;20.13;3.15;;;17.60;61.30;;;;;;10468619;28;20120;-62
2021/03/27 11:51:08;;;;;;;16.05;3.85;;;17.50;61.20;;;;;;10470572;28;20728;-63
2021/03/27 11:56:54;;;;;;;15.27;3.17;;;17.40;61.40;;;;;;10469454;28;20021;-66
2021/03/27 12:02:37;;;;;;;22.10;2.30;;;17.40;61.10;;;;;;10454285;28;20037;-63
2021/03/27 12:08:12;;;;;;;15.95;2.45;;;17.40;61.30;;;;;;10452063;28;20048;-62
2021/03/27 12:13:28;;;;;;;12.02;2.30;;;17.30;61.80;;;;;;10499977;28;20059;-62
2021/03/27 12:19:19;;;;;;;18.88;2.78;;;17.30;61.40;;;;;;10464855;28;20047;-62
2021/03/27 12:24:30;;;;;;;7.25;2.25;;;17.30;61.60;;;;;;10464543;28;20064;-61
2021/03/27 12:30:07;;;;;;;21.35;3.22;;;17.30;61.20;;;;;;10476213;28;20052;-61
2021/03/27 12:35:34;;;;;;;20.40;3.22;;;17.30;61.70;;;;;;10476286;28;20040;-61
2021/03/27 12:41:12;;;;;;;17.17;3.50;;;17.30;61.70;;;;;;10481409;28;20025;-60
2021/03/27 12:46:43;;;;;;;17.00;3.33;;;17.30;61.70;;;;;;10477847;28;20477;-60
2021/03/27 12:52:14;;;;;;;22.15;3.25;;;17.30;61.30;;;;;;10461939;28;20381;-61
2021/03/27 12:57:44;;;;;;;11.50;2.38;;;17.20;61.00;;;;;;10491150;28;20103;-60
2021/03/27 13:03:28;;;;;;;9.27;2.57;;;17.20;61.00;;;;;;10501929;28;20491;-61
2021/03/27 13:08:40;;;;;;;15.80;2.85;;;17.20;60.90;;;;;;10462171;28;20037;-61
2021/03/27 13:13:50;;;;;;;10.07;2.72;;;17.10;60.90;;;;;;10459936;28;20055;-61
2021/03/27 13:19:31;;;;;;;7.95;2.78;;;17.20;60.90;;;;;;10467315;28;20028;-62
2021/03/27 13:24:35;;;;;;;7.43;2.38;;;17.20;60.70;;;;;;10477236;28;20144;-61
2021/03/27 13:29:42;;;;;;;8.18;2.20;;;17.20;60.70;;;;;;10484122;28;20493;-61
2021/03/27 13:35:03;;;;;;;7.85;1.80;;;17.20;61.20;;;;;;10458917;28;20044;-61
2021/03/27 13:40:23;;;;;;;6.95;1.70;;;17.30;60.40;;;;;;10481332;28;20036;-61
2021/03/27 13:45:27;;;;;;;;;;;17.30;60.30;;;;;;10486782;28;20037;-61
2021/03/27 13:51:08;;;;;;;10.05;2.00;;;17.20;60.10;;;;;;10469502;28;19987;-61
2021/03/27 13:56:26;;;;;;;7.18;2.05;;;17.20;60.00;;;;;;10459680;28;20496;-59
2021/03/27 14:02:07;;;;;;;5.03;2.17;;;17.10;60.00;;;;;;10459409;28;20371;-60
2021/03/27 14:07:43;;;;;;;6.57;1.95;;;17.10;60.00;;;;;;10473205;28;20047;-58
2021/03/27 14:13:18;;;;;;;5.95;2.28;;;17.10;60.00;;;;;;10458046;28;20026;-58
2021/03/27 14:18:56;;;;;;;8.45;2.75;;;17.20;59.90;;;;;;10458204;28;20029;-59
2021/03/27 14:24:22;;;;;;;7.65;2.38;;;17.30;59.90;;;;;;10457470;28;20033;-59
2021/03/27 14:29:47;;;;;;;7.45;1.90;;;17.20;59.70;;;;;;10467312;28;20094;-59
2021/03/27 14:35:29;;;;;;;6.15;1.73;;;17.20;59.60;;;;;;10457841;28;20062;-58
2021/03/27 14:40:36;;;;;;;3.47;1.50;;;17.20;59.70;;;;;;10456208;28;20029;-59
2021/03/27 14:46:19;;;;;;;5.50;2.78;;;17.20;59.60;;;;;;10469017;28;20381;-58
2021/03/27 14:52:15;;;;;;;8.25;2.13;;;17.20;59.60;;;;;;10440748;28;20215;-58
2021/03/27 14:57:45;;;;;;;4.78;1.60;;;17.20;59.60;;;;;;10481045;28;20416;-58
2021/03/27 15:03:10;;;;;;;;;;;17.20;59.60;;;;;;10486734;28;20115;-58
2021/03/27 15:08:58;;;;;;;5.18;2.20;;;17.20;59.50;;;;;;10486441;28;19916;-58
2021/03/27 15:14:17;;;;;;;7.25;1.90;;;17.20;59.50;;;;;;10439369;28;20552;-58
2021/03/27 15:20:10;;;;;;;6.93;1.80;;;17.10;59.40;;;;;;10455837;28;20446;-57
2021/03/27 15:31:01;;;;;;;16.63;2.75;;;17.10;59.30;;;;;;10449651;28;20119;-58
2021/03/27 15:36:28;;;;;;;6.65;1.55;;;17.10;59.60;;;;;;10461798;28;20025;-58
2021/03/27 15:42:05;;;;;;;10.35;2.28;;;17.10;59.80;;;;;;10450670;28;20470;-58
2021/03/27 15:47:13;;;;;;;15.45;2.28;;;17.10;60.00;;;;;;10450729;28;20111;-59
2021/03/27 15:52:29;;;;;;;8.27;1.80;;;17.20;60.20;;;;;;10455970;28;20032;-58
2021/03/27 15:57:46;;;;;;;13.15;2.45;;;17.20;60.30;;;;;;10448522;28;20033;-59
2021/03/27 16:03:29;;;;;;;11.57;2.50;;;17.20;60.50;;;;;;10447853;28;20078;-57
2021/03/27 16:08:48;;;;;;;9.30;1.73;;;17.20;60.50;;;;;;10447045;28;20199;-59
2021/03/27 16:14:14;;;;;;;15.27;3.63;;;17.30;60.70;;;;;;10429779;28;20033;-58
2021/03/27 16:19:37;;;;;;;15.88;3.47;;;17.20;59.90;;;;;;10423442;28;20033;-58
2021/03/27 16:24:46;;;;;;;17.20;2.90;;;17.20;59.90;;;;;;10440189;28;20041;-57
2021/03/27 16:30:04;;;;;;;26.77;4.32;;;17.30;59.80;;;;;;10453485;28;20116;-55
2021/03/27 16:35:23;;;;;;;15.45;3.65;;;17.40;60.60;;;;;;10460405;28;20361;-57
2021/03/27 16:40:37;;;;;;;19.07;3.57;;;17.40;61.30;;;;;;10491639;28;20047;-58
2021/03/27 16:46:10;;;;;;;21.77;4.18;;;17.50;61.80;;;;;;10469326;28;20036;-56
2021/03/27 16:51:50;;;;;;;16.88;4.22;;;17.50;60.60;;;;;;10499606;28;20043;-55
2021/03/27 16:57:21;;;;;;;17.75;4.93;;;17.50;59.90;;;;;;10474486;28;20067;-53
2021/03/27 17:02:30;;;;;;;17.63;3.80;;;17.40;60.10;;;;;;10460346;28;20119;-55
2021/03/27 17:08:19;;;;;;;10.25;3.25;;;17.50;58.60;;;;;;10457223;28;20025;-55
2021/03/27 17:13:40;;;;;;;13.10;2.67;;;17.50;60.70;;;;;;10457253;28;20040;-54
2021/03/27 17:19:34;;;;;;;7.47;2.53;;;17.60;60.80;;;;;;10471694;28;20077;-56
2021/03/27 17:24:55;;;;;;;12.00;2.58;;;17.60;60.60;;;;;;10493037;28;20045;-58
2021/03/27 17:30:25;;;;;;;21.50;3.45;;;17.60;59.80;;;;;;10463188;28;20486;-56
2021/03/27 17:35:44;;;;;;;14.88;2.72;;;17.60;59.30;;;;;;10459617;28;20464;-57
2021/03/27 17:41:38;;;;;;;25.73;3.22;;;17.60;59.50;;;;;;10485533;28;20419;-58
2021/03/27 17:46:55;;;;;;;16.73;3.83;;;17.50;59.30;;;;;;10491715;28;20033;-58
2021/03/27 17:52:13;;;;;;;17.17;3.35;;;17.50;59.20;;;;;;10459028;28;20381;-58
2021/03/27 17:57:26;;;;;;;11.88;2.95;;;17.50;59.30;;;;;;10457965;28;20029;-58
2021/03/27 18:02:30;;;;;;;10.15;2.70;;;17.50;59.20;;;;;;10454849;28;20037;-59
2021/03/27 18:07:52;;;;;;;13.75;3.95;;;17.40;60.30;;;;;;10459437;28;20029;-57
2021/03/27 18:13:17;;;;;;;8.63;2.90;;;17.40;61.70;;;;;;10469019;28;20043;-57
2021/03/27 18:18:42;;;;;;;16.50;2.60;;;17.40;61.20;;;;;;10473381;28;20029;-57
2021/03/27 18:24:25;;;;;;;11.57;2.38;;;17.40;61.50;;;;;;10457555;28;20049;-56
2021/03/27 18:29:56;;;;;;;10.77;2.00;;;17.40;60.90;;;;;;10460463;28;20037;-56
2021/03/27 18:35:18;;;;;;;13.75;2.67;;;17.30;60.60;;;;;;10460578;28;20521;-55
2021/03/27 18:40:37;;;;;;;13.43;2.30;;;17.40;60.90;;;;;;10465175;28;20028;-55
2021/03/27 18:45:47;;;;;;;14.52;2.42;;;17.40;61.20;;;;;;10460994;28;20449;-55
2021/03/27 18:51:10;;;;;;;17.48;3.63;;;17.40;60.80;;;;;;10457505;28;20033;-55
2021/03/27 18:56:36;;;;;;;12.10;2.70;;;17.50;60.70;;;;;;10464547;28;20072;-55
2021/03/27 19:01:50;;;;;;;8.07;2.20;;;17.50;61.60;;;;;;10471944;28;20062;-55
2021/03/27 19:07:48;;;;;;;6.57;2.42;;;17.50;61.00;;;;;;10467457;28;20033;-55
2021/03/27 19:12:53;;;;;;;9.18;2.13;;;17.50;61.00;;;;;;10399562;28;20073;-55
2021/03/27 19:18:21;;;;;;;12.23;2.10;;;17.60;61.20;;;;;;10453128;28;20473;-56
2021/03/27 19:23:38;;;;;;;10.25;2.53;;;17.60;61.30;;;;;;10480206;28;20068;-55
2021/03/27 19:29:06;;;;;;;10.52;2.42;;;17.60;61.40;;;;;;10462684;28;20032;-55
2021/03/27 19:34:24;;;;;;;7.40;2.78;;;17.50;61.40;;;;;;10450657;28;20072;-57
2021/03/27 19:39:30;;;;;;;9.15;2.75;;;17.50;61.40;;;;;;10454949;28;20078;-55
2021/03/27 19:45:01;;;;;;;9.70;2.30;;;17.50;61.50;;;;;;10454755;28;20060;-55
2021/03/27 19:50:32;;;;;;;4.50;1.92;;;17.50;61.50;;;;;;10459399;28;20071;-57
2021/03/27 19:55:40;;;;;;;6.05;2.70;;;17.50;61.40;;;;;;10458949;28;20159;-55
2021/03/27 20:00:47;;;;;;;7.53;3.47;;;17.50;61.40;;;;;;10458723;28;20112;-54
2021/03/27 20:06:09;;;;;;;5.35;1.83;;;17.50;61.30;;;;;;10493831;28;20094;-55
2021/03/27 20:11:34;;;;;;;7.07;2.30;;;17.50;60.70;;;;;;10480173;28;20420;-54
2021/03/27 20:16:58;;;;;;;5.28;1.92;;;17.60;60.60;;;;;;10479827;28;20040;-54
2021/03/27 20:22:20;;;;;;;4.20;1.40;;;17.50;60.40;;;;;;10456932;28;20051;-55
2021/03/27 20:27:32;;;;;;;8.07;2.33;;;17.50;60.30;;;;;;10499976;28;20060;-56
2021/03/27 20:32:48;;;;;;;6.32;2.53;;;17.50;60.20;;;;;;10461522;28;20071;-55
2021/03/27 20:38:15;;;;;;;4.80;2.65;;;17.50;60.00;;;;;;10465003;28;20426;-55
2021/03/27 20:43:56;;;;;;;3.55;1.75;;;17.60;59.80;;;;;;10462358;28;20037;-56
2021/03/27 20:49:05;;;;;;;7.43;1.60;;;17.50;59.60;;;;;;10460995;28;20040;-55
2021/03/27 20:54:15;;;;;;;8.70;1.88;;;17.60;59.50;;;;;;10461369;28;20431;-56
2021/03/27 21:00:00;;;;;;;8.45;2.10;;;17.60;59.40;;;;;;10493907;28;20036;-55
2021/03/27 21:05:18;;;;;;;3.95;1.38;;;17.60;59.40;;;;;;10503626;28;20389;-56
2021/03/27 21:10:51;;;;;;;4.75;1.63;;;17.60;59.20;;;;;;10503122;28;20040;-56
2021/03/27 21:16:30;;;;;;;3.95;1.60;;;17.60;59.10;;;;;;10493314;28;20036;-56
2021/03/27 21:22:01;;;;;;;5.03;1.48;;;17.60;59.10;;;;;;10476838;28;20044;-56
2021/03/27 21:27:17;;;;;;;4.55;1.73;;;17.60;59.00;;;;;;10488644;28;20050;-55
2021/03/27 21:32:35;;;;;;;4.75;1.23;;;17.60;58.90;;;;;;10464683;28;20121;-55
2021/03/27 21:38:32;;;;;;;3.42;1.70;;;17.60;58.90;;;;;;10474078;28;20029;-55
2021/03/27 21:44:47;;;;;;;7.13;2.08;;;17.60;58.70;;;;;;10459684;28;20052;-56
2021/03/27 21:50:00;;;;;;;4.88;1.83;;;17.70;58.70;;;;;;10439714;28;20040;-55
2021/03/27 21:55:12;;;;;;;4.43;1.60;;;17.70;58.60;;;;;;10497443;28;20025;-55
2021/03/27 22:00:54;;;;;;;5.43;1.83;;;17.70;58.50;;;;;;10501098;28;20501;-56
2021/03/27 22:06:30;;;;;;;5.05;2.03;;;17.70;58.50;;;;;;10497436;28;20524;-56
2021/03/27 22:12:02;;;;;;;6.38;1.88;;;17.60;58.30;;;;;;10476718;28;20032;-55
2021/03/27 22:17:18;;;;;;;3.08;1.50;;;17.70;58.30;;;;;;10481033;28;20428;-55
2021/03/27 22:22:55;;;;;;;8.00;2.25;;;17.60;58.30;;;;;;10480271;28;20040;-55
2021/03/27 22:28:31;;;;;;;3.80;1.23;;;17.70;58.40;;;;;;10485299;28;20039;-55
2021/03/27 22:33:48;;;;;;;2.97;1.38;;;17.70;58.30;;;;;;10458558;28;20061;-55
2021/03/27 22:39:23;;;;;;;3.47;1.55;;;17.70;58.20;;;;;;10481390;28;20058;-55
2021/03/27 22:44:52;;;;;;;4.63;1.42;;;17.70;58.20;;;;;;10497492;28;20045;-55
2021/03/27 22:50:19;;;;;;;6.15;1.70;;;17.70;58.10;;;;;;10495049;28;20107;-55
2021/03/27 22:55:32;;;;;;;4.25;1.52;;;17.70;58.20;;;;;;10456100;28;20036;-55
2021/03/27 23:01:13;;;;;;;3.95;1.77;;;17.70;58.10;;;;;;10456199;28;20436;-55
2021/03/27 23:06:18;;;;;;;2.35;1.13;;;17.70;58.00;;;;;;10457280;28;20028;-55
2021/03/27 23:11:31;;;;;;;4.05;1.83;;;17.70;58.00;;;;;;10494341;28;20099;-55
2021/03/27 23:16:48;;;;;;;2.90;1.52;;;17.70;58.60;;;;;;10472374;28;20037;-55
2021/03/27 23:21:58;;;;;;;3.80;1.90;;;17.70;57.90;;;;;;10486978;28;20133;-55
2021/03/27 23:27:25;;;;;;;3.58;1.52;;;17.70;57.90;;;;;;10495048;28;20430;-55
2021/03/27 23:32:53;;;;;;;3.47;1.63;;;17.70;57.80;;;;;;10450546;28;20033;-55
2021/03/27 23:38:08;;;;;;;3.47;1.40;;;17.70;57.80;;;;;;10477985;28;20032;-55
2021/03/27 23:43:18;;;;;;;3.88;1.30;;;17.70;57.90;;;;;;10495660;28;20059;-55
2021/03/27 23:48:48;;;;;;;3.80;1.80;;;17.70;57.80;;;;;;10486268;28;20033;-54
2021/03/27 23:54:03;;;;;;;4.10;1.42;;;17.70;57.80;;;;;;10492216;28;20082;-56
2021/03/27 23:59:23;;;;;;;4.45;1.65;;;17.70;57.80;;;;;;10451416;28;20478;-55
